OMAL/AAN METAR and TAF weather

Enter ICAO airport designator
Station Type Date Time Source
OMAL METAR 2020/11/25 23:00 UTC NOAA

OMAL 252300Z 10010KT CAVOK 21/11 Q1016 NOSIG


Station Type Date Time Source
OMAL Decoded METAR 2020/11/25 23:00 UTC NOAA

Al Ain International Airport, United Arab Emirates (OMAL) 24-16N 055-36E 262M
Nov 25, 2020 - 06:00 PM EST / 2020.11.25 2300 UTC
Wind: from the E (100 degrees) at 12 MPH (10 KT):0
Visibility: greater than 7 mile(s):0
Temperature: 69 F (21 C)
Dew Point: 51 F (11 C)
Relative Humidity: 52%
Pressure (altimeter): 30.00 in. Hg (1016 hPa)
ob: OMAL 252300Z 10010KT CAVOK 21/11 Q1016 NOSIG
cycle: 23

Station Type Date Time Source
OMAL TAF 2020/11/25 18:01 UTC NOAA

TAF OMAL 251700Z 2518/2700 08012KT CAVOK
BECMG 2600/2602 14008KT
BECMG 2611/2613 08012KT

Example: see airport list